Time;durP1;ratioP1;P1;durP2;ratioP2;P2;SDS_P1;SDS_P2;PMS_P1;PMS_P2;Temp;Humidity;BMP_temperature;BMP_pressure;BME280_temperature;BME280_humidity;BME280_pressure;Samples;Min_cycle;Max_cycle;Signal;HPM_P1;HPM_P2
2021/04/16 00:01:44;;;;;;;0.30;0.30;;;5.30;99.90;;;;;;4398037;32;20065;-73
2021/04/16 00:04:09;;;;;;;0.50;0.50;;;5.30;99.90;;;;;;4398100;32;20154;-73
2021/04/16 00:06:35;;;;;;;0.30;0.30;;;5.20;99.90;;;;;;4398695;32;20565;-73
2021/04/16 00:09:01;;;;;;;0.30;0.30;;;5.20;99.90;;;;;;4398093;32;20424;-73
2021/04/16 00:11:27;;;;;;;11.00;0.52;;;5.30;99.90;;;;;;4398480;32;20066;-73
2021/04/16 00:13:53;;;;;;;2.00;1.15;;;5.40;99.90;;;;;;4398089;32;20070;-73
2021/04/16 00:16:22;;;;;;;0.30;0.30;;;5.50;99.90;;;;;;4397640;32;20058;-73
2021/04/16 00:18:48;;;;;;;0.73;0.73;;;5.50;99.90;;;;;;4398364;32;20506;-73
2021/04/16 00:21:14;;;;;;;0.30;0.30;;;5.50;99.90;;;;;;4397714;32;20133;-73
2021/04/16 00:23:40;;;;;;;0.82;0.45;;;5.50;99.90;;;;;;4397947;32;20465;-73
2021/04/16 00:26:08;;;;;;;0.30;0.30;;;5.50;99.90;;;;;;4398296;32;20101;-73
2021/04/16 00:28:34;;;;;;;0.30;0.30;;;5.50;99.90;;;;;;4398502;32;20065;-73
2021/04/16 00:31:10;;;;;;;0.30;0.30;;;5.50;99.90;;;;;;4398515;32;20507;-73
2021/04/16 00:33:36;;;;;;;0.30;0.30;;;5.50;99.90;;;;;;4398013;32;20416;-73
2021/04/16 00:36:01;;;;;;;0.30;0.30;;;5.50;99.90;;;;;;4398648;32;20082;-73
2021/04/16 00:38:27;;;;;;;0.30;0.30;;;5.60;99.90;;;;;;4397440;32;20435;-73
2021/04/16 00:40:56;;;;;;;0.30;0.30;;;5.60;99.90;;;;;;4398918;32;20070;-73
2021/04/16 00:43:24;;;;;;;0.40;0.40;;;5.50;99.90;;;;;;4398463;32;20059;-73
2021/04/16 00:45:53;;;;;;;0.20;0.20;;;5.70;99.90;;;;;;4398363;32;20058;-72
2021/04/16 00:48:30;;;;;;;0.30;0.30;;;5.70;99.90;;;;;;4398847;32;20412;-72
2021/04/16 00:50:58;;;;;;;0.47;0.40;;;5.70;99.90;;;;;;4398723;32;20061;-72
2021/04/16 00:53:24;;;;;;;2.10;0.60;;;5.60;99.90;;;;;;4398088;32;20067;-72
2021/04/16 00:55:51;;;;;;;0.40;0.35;;;5.60;99.90;;;;;;4398990;32;20528;-72
2021/04/16 00:58:19;;;;;;;0.30;0.30;;;5.70;99.90;;;;;;4397464;32;20066;-72
2021/04/16 01:00:48;;;;;;;0.45;0.45;;;5.70;99.90;;;;;;4398073;32;20503;-72
2021/04/16 01:03:14;;;;;;;0.40;0.40;;;5.50;99.90;;;;;;4398462;32;20492;-72
2021/04/16 01:05:40;;;;;;;0.85;0.82;;;5.50;99.90;;;;;;4398909;32;20089;-72
2021/04/16 01:08:06;;;;;;;0.52;0.52;;;5.60;99.90;;;;;;4398528;32;20062;-72
2021/04/16 01:10:32;;;;;;;0.30;0.30;;;5.60;99.90;;;;;;4398649;32;20121;-72
2021/04/16 01:12:58;;;;;;;0.20;0.20;;;5.50;99.90;;;;;;4398037;32;20061;-72
2021/04/16 01:15:32;;;;;;;0.30;0.30;;;5.60;99.90;;;;;;4397772;32;20058;-72
2021/04/16 01:18:03;;;;;;;0.40;0.40;;;5.70;99.90;;;;;;4397832;32;20054;-72
2021/04/16 01:20:32;;;;;;;0.20;0.20;;;5.70;99.90;;;;;;4397661;32;20125;-72
2021/04/16 01:23:20;;;;;;;0.40;0.40;;;5.70;99.90;;;;;;4397505;32;20065;-72
2021/04/16 01:25:46;;;;;;;0.30;0.30;;;5.70;99.90;;;;;;4397788;32;20511;-72
2021/04/16 01:28:11;;;;;;;10.50;0.57;;;5.60;99.90;;;;;;4398129;32;20062;-72
2021/04/16 01:30:53;;;;;;;2.20;0.68;;;5.60;99.90;;;;;;4398022;32;20070;-72
2021/04/16 01:33:18;;;;;;;0.28;0.28;;;5.60;99.90;;;;;;4397804;32;20074;-72
2021/04/16 01:35:44;;;;;;;0.30;0.30;;;5.60;99.90;;;;;;4397641;32;20062;-72
2021/04/16 01:38:09;;;;;;;0.62;0.62;;;5.70;99.90;;;;;;4398056;32;20078;-72
2021/04/16 01:40:36;;;;;;;0.77;0.77;;;5.70;99.90;;;;;;4397869;32;20125;-72
2021/04/16 01:43:15;;;;;;;0.30;0.30;;;5.70;99.90;;;;;;4397402;32;20121;-72
2021/04/16 01:45:41;;;;;;;0.30;0.30;;;5.70;99.90;;;;;;4397013;32;20062;-72
2021/04/16 01:48:07;;;;;;;8.57;0.88;;;5.70;99.90;;;;;;4397104;32;20053;-72
2021/04/16 01:50:32;;;;;;;0.40;0.40;;;5.70;99.90;;;;;;4397437;32;20065;-72
2021/04/16 01:52:59;;;;;;;0.40;0.40;;;5.80;99.90;;;;;;4397608;32;20072;-72
2021/04/16 01:55:25;;;;;;;0.32;0.32;;;5.80;99.90;;;;;;4396916;32;20433;-73
2021/04/16 01:57:51;;;;;;;0.30;0.30;;;5.90;99.90;;;;;;4395984;32;20066;-73
2021/04/16 02:00:26;;;;;;;0.40;0.40;;;5.80;99.90;;;;;;4397897;32;20066;-73
2021/04/16 02:02:51;;;;;;;0.30;0.30;;;5.80;99.90;;;;;;4398231;32;20070;-73
2021/04/16 02:05:17;;;;;;;0.40;0.40;;;5.80;99.90;;;;;;4396102;32;20416;-73
2021/04/16 02:07:43;;;;;;;0.40;0.40;;;5.80;99.90;;;;;;4396979;32;20451;-73
2021/04/16 02:10:10;;;;;;;0.73;0.70;;;5.90;99.90;;;;;;4396758;32;20116;-73
2021/04/16 02:12:36;;;;;;;0.30;0.30;;;5.90;99.90;;;;;;4397357;32;20065;-73
2021/04/16 02:15:03;;;;;;;0.20;0.20;;;5.90;99.90;;;;;;4397600;32;20527;-73
2021/04/16 02:17:29;;;;;;;0.30;0.30;;;5.90;99.90;;;;;;4396816;32;20587;-73
2021/04/16 02:19:57;;;;;;;2.72;0.95;;;5.80;99.90;;;;;;4396950;32;20174;-73
2021/04/16 02:22:25;;;;;;;0.28;0.28;;;5.80;99.90;;;;;;4396863;32;20079;-73
2021/04/16 02:24:51;;;;;;;0.32;0.32;;;5.90;99.90;;;;;;4396836;32;20069;-73
2021/04/16 02:27:20;;;;;;;0.30;0.30;;;5.90;99.90;;;;;;4397038;32;20090;-73
2021/04/16 02:29:45;;;;;;;0.60;0.60;;;5.90;99.90;;;;;;4397609;32;20143;-73
2021/04/16 02:32:11;;;;;;;0.30;0.30;;;5.90;99.90;;;;;;4397459;32;20088;-73
2021/04/16 02:34:37;;;;;;;0.60;0.60;;;5.90;99.90;;;;;;4397137;32;20066;-73
2021/04/16 02:37:07;;;;;;;0.30;0.30;;;6.00;99.90;;;;;;4396118;32;20380;-73
2021/04/16 02:39:33;;;;;;;0.40;0.40;;;5.90;99.90;;;;;;4396651;32;20070;-73
2021/04/16 02:41:59;;;;;;;0.30;0.30;;;5.80;99.90;;;;;;4397119;32;20381;-73
2021/04/16 02:44:25;;;;;;;0.30;0.30;;;5.70;99.90;;;;;;4399225;32;20054;-73
2021/04/16 02:46:52;;;;;;;0.50;0.50;;;5.80;99.90;;;;;;4399940;32;20078;-73
2021/04/16 02:49:18;;;;;;;0.37;0.37;;;5.90;99.90;;;;;;4399796;32;20135;-73
2021/04/16 02:51:44;;;;;;;0.30;0.30;;;5.80;99.90;;;;;;4399007;32;20049;-73
2021/04/16 02:54:09;;;;;;;0.85;0.73;;;5.80;99.90;;;;;;4399996;32;20491;-73
2021/04/16 02:56:35;;;;;;;0.50;0.50;;;5.80;99.90;;;;;;4399542;32;20066;-73
2021/04/16 02:59:01;;;;;;;0.45;0.45;;;5.80;99.90;;;;;;4398559;32;20062;-73
2021/04/16 03:01:27;;;;;;;0.30;0.30;;;5.80;99.90;;;;;;4400556;32;20070;-73
2021/04/16 03:03:54;;;;;;;1.67;0.93;;;5.80;99.90;;;;;;4399200;32;20074;-73
2021/04/16 03:06:20;;;;;;;0.85;0.82;;;5.90;99.90;;;;;;4399273;32;20109;-72
2021/04/16 03:08:52;;;;;;;0.30;0.30;;;5.90;99.90;;;;;;4398455;32;20058;-72
2021/04/16 03:11:17;;;;;;;3.87;0.80;;;6.00;99.90;;;;;;4399696;32;20062;-72
2021/04/16 03:13:43;;;;;;;0.30;0.30;;;6.00;99.90;;;;;;4400227;32;20069;-73
2021/04/16 03:16:08;;;;;;;0.30;0.30;;;6.00;99.90;;;;;;4399549;32;20118;-73
2021/04/16 03:18:34;;;;;;;0.20;0.20;;;5.90;99.90;;;;;;4397685;32;20062;-73
2021/04/16 03:20:59;;;;;;;0.55;0.35;;;5.90;99.90;;;;;;4398818;32;20073;-73
2021/04/16 03:23:25;;;;;;;0.40;0.40;;;5.80;99.90;;;;;;4398442;32;20125;-73
2021/04/16 03:25:50;;;;;;;0.75;0.75;;;5.80;99.90;;;;;;4398601;32;20055;-72
2021/04/16 03:28:16;;;;;;;0.30;0.30;;;5.80;99.90;;;;;;4398916;32;20606;-72
2021/04/16 03:30:42;;;;;;;0.22;0.22;;;5.70;99.90;;;;;;4398718;32;20109;-72
2021/04/16 03:33:07;;;;;;;0.30;0.30;;;5.80;99.90;;;;;;4398662;32;20079;-72
2021/04/16 03:35:32;;;;;;;0.20;0.20;;;5.80;99.90;;;;;;4397752;32;20518;-72
2021/04/16 03:37:58;;;;;;;0.20;0.20;;;5.80;99.90;;;;;;4399443;32;20086;-72
2021/04/16 03:40:28;;;;;;;0.28;0.28;;;5.80;99.90;;;;;;4398792;32;20117;-72
2021/04/16 03:42:54;;;;;;;0.30;0.30;;;5.80;99.90;;;;;;4398896;32;20062;-72
2021/04/16 03:45:20;;;;;;;0.30;0.30;;;6.00;99.90;;;;;;4398914;32;20527;-72
2021/04/16 03:47:47;;;;;;;0.32;0.32;;;5.90;99.90;;;;;;4398677;32;20412;-72
2021/04/16 03:50:16;;;;;;;0.30;0.30;;;5.80;99.90;;;;;;4397410;32;20078;-72
2021/04/16 03:52:41;;;;;;;0.30;0.30;;;5.80;99.90;;;;;;4398348;32;20113;-72
2021/04/16 03:55:08;;;;;;;0.30;0.30;;;5.90;99.90;;;;;;4397766;32;20058;-72
2021/04/16 03:57:34;;;;;;;0.35;0.35;;;5.90;99.90;;;;;;4398959;32;20162;-72
2021/04/16 04:00:00;;;;;;;0.32;0.32;;;5.90;99.90;;;;;;4398396;32;20498;-72
2021/04/16 04:02:25;;;;;;;0.40;0.40;;;5.90;99.90;;;;;;4397855;32;20066;-72
2021/04/16 04:04:51;;;;;;;0.30;0.30;;;5.90;99.90;;;;;;4397507;32;20113;-72
2021/04/16 04:07:17;;;;;;;0.30;0.30;;;5.90;99.90;;;;;;4397357;32;20413;-72
2021/04/16 04:09:42;;;;;;;0.40;0.40;;;5.90;99.90;;;;;;4396120;32;20058;-72
2021/04/16 04:12:09;;;;;;;0.30;0.30;;;5.90;99.90;;;;;;4396552;32;20078;-72
2021/04/16 04:14:35;;;;;;;0.40;0.40;;;5.80;99.90;;;;;;4394717;32;20511;-72
2021/04/16 04:17:03;;;;;;;0.30;0.30;;;5.90;99.90;;;;;;4397016;32;20136;-73
2021/04/16 04:19:30;;;;;;;0.28;0.28;;;6.00;99.90;;;;;;4395462;32;20081;-73
2021/04/16 04:21:57;;;;;;;0.30;0.30;;;6.00;99.90;;;;;;4385624;32;20575;-71
2021/04/16 04:24:23;;;;;;;0.40;0.40;;;5.90;99.90;;;;;;4394776;32;20066;-73
2021/04/16 04:26:49;;;;;;;0.30;0.30;;;5.90;99.90;;;;;;4396036;32;20117;-73
2021/04/16 04:29:18;;;;;;;0.40;0.40;;;5.90;99.90;;;;;;4397314;32;20129;-73
2021/04/16 04:31:47;;;;;;;27.37;3.70;;;5.90;99.90;;;;;;4397643;32;20411;-73
2021/04/16 04:34:16;;;;;;;0.62;0.50;;;6.00;99.90;;;;;;4397754;32;20061;-73
2021/04/16 04:36:41;;;;;;;0.85;0.85;;;6.00;99.90;;;;;;4398122;32;20526;-73
2021/04/16 04:39:07;;;;;;;0.30;0.30;;;5.80;99.90;;;;;;4399063;32;20153;-72
2021/04/16 04:41:32;;;;;;;0.30;0.30;;;5.80;99.90;;;;;;4397588;32;20069;-72
2021/04/16 04:43:58;;;;;;;1.00;0.62;;;5.90;99.90;;;;;;4399324;32;20078;-72
2021/04/16 04:46:23;;;;;;;1.45;0.60;;;5.90;99.90;;;;;;4397778;32;20074;-73
2021/04/16 04:48:49;;;;;;;0.37;0.37;;;5.90;99.90;;;;;;4397558;32;20412;-73
2021/04/16 04:51:14;;;;;;;0.30;0.30;;;5.80;99.90;;;;;;4397195;32;20062;-73
2021/04/16 04:53:40;;;;;;;0.60;0.60;;;5.90;99.90;;;;;;4396797;32;20448;-73
2021/04/16 04:56:05;;;;;;;0.50;0.50;;;5.80;99.90;;;;;;4398193;32;20070;-73
2021/04/16 04:58:31;;;;;;;0.40;0.40;;;5.70;99.90;;;;;;4396543;32;20074;-73
2021/04/16 05:00:56;;;;;;;0.88;0.75;;;5.70;99.90;;;;;;4396302;32;20417;-73
2021/04/16 05:03:22;;;;;;;0.40;0.40;;;5.70;99.90;;;;;;4384125;32;20070;-73
2021/04/16 05:05:47;;;;;;;0.40;0.40;;;5.80;99.90;;;;;;4394403;32;20078;-73
2021/04/16 05:08:13;;;;;;;0.60;0.60;;;5.80;99.90;;;;;;4395476;32;20070;-73
2021/04/16 05:10:38;;;;;;;0.40;0.40;;;5.90;99.90;;;;;;4404137;32;20526;-73
2021/04/16 05:13:04;;;;;;;0.30;0.30;;;5.90;99.90;;;;;;4393567;32;20067;-71
2021/04/16 05:15:29;;;;;;;0.60;0.60;;;6.00;99.90;;;;;;4399891;32;20065;-72
2021/04/16 05:17:55;;;;;;;0.30;0.30;;;5.90;99.90;;;;;;4379583;32;20515;-72
2021/04/16 05:20:22;;;;;;;0.85;0.52;;;6.00;99.90;;;;;;4392490;32;20149;-72
2021/04/16 05:22:47;;;;;;;0.85;0.73;;;5.90;99.90;;;;;;4383120;32;20067;-72
2021/04/16 05:25:13;;;;;;;0.37;0.37;;;6.00;99.90;;;;;;4394191;32;20548;-72
2021/04/16 05:27:39;;;;;;;0.35;0.35;;;6.00;99.90;;;;;;4377605;32;20842;-74
2021/04/16 05:30:06;;;;;;;0.20;0.20;;;6.00;99.90;;;;;;4388783;32;20348;-73
2021/04/16 05:32:31;;;;;;;0.30;0.30;;;6.10;99.90;;;;;;4361915;32;20654;-73
2021/04/16 05:34:58;;;;;;;0.40;0.40;;;6.10;99.90;;;;;;4386788;32;20069;-73
2021/04/16 05:37:24;;;;;;;0.30;0.30;;;6.10;99.90;;;;;;4387942;32;20113;-72
2021/04/16 05:39:51;;;;;;;0.30;0.30;;;6.10;99.90;;;;;;4391162;32;20528;-73
2021/04/16 05:42:20;;;;;;;0.30;0.30;;;6.20;99.90;;;;;;4411267;32;20073;-74
2021/04/16 05:44:46;;;;;;;1.95;0.40;;;6.30;99.90;;;;;;4391867;32;20090;-75
2021/04/16 05:47:12;;;;;;;0.60;0.60;;;6.40;99.90;;;;;;4390829;32;20075;-74
2021/04/16 05:49:37;;;;;;;0.40;0.40;;;6.40;99.90;;;;;;4407286;32;20518;-74
2021/04/16 05:52:03;;;;;;;0.47;0.47;;;6.30;99.90;;;;;;4396179;32;20058;-74
2021/04/16 05:54:28;;;;;;;18.42;2.83;;;6.40;99.90;;;;;;4396836;32;20089;-74
2021/04/16 05:56:54;;;;;;;0.40;0.40;;;6.50;99.90;;;;;;4394214;32;20376;-74
2021/04/16 05:59:19;;;;;;;0.98;0.68;;;6.40;99.90;;;;;;4394706;32;20316;-72
2021/04/16 06:01:45;;;;;;;0.35;0.35;;;6.50;99.90;;;;;;4399871;32;20073;-73
2021/04/16 06:04:17;;;;;;;0.40;0.40;;;6.40;99.90;;;;;;4399909;32;20071;-73
2021/04/16 06:06:43;;;;;;;0.30;0.30;;;6.40;99.90;;;;;;4394545;32;20082;-73
2021/04/16 06:09:09;;;;;;;0.47;0.47;;;6.40;99.90;;;;;;4394232;32;20115;-74
2021/04/16 06:11:34;;;;;;;0.30;0.30;;;6.40;99.90;;;;;;4390606;32;20494;-75
2021/04/16 06:14:00;;;;;;;0.52;0.52;;;6.40;99.90;;;;;;4392003;32;20095;-72
2021/04/16 06:16:25;;;;;;;0.30;0.30;;;6.50;99.90;;;;;;4383637;32;20073;-73
2021/04/16 06:18:51;;;;;;;0.88;0.80;;;6.50;99.90;;;;;;4395594;32;20062;-73
2021/04/16 06:21:17;;;;;;;0.30;0.30;;;6.60;99.90;;;;;;4395152;32;20067;-73
2021/04/16 06:23:42;;;;;;;0.62;0.62;;;6.50;99.90;;;;;;4391248;32;20657;-73
2021/04/16 06:26:07;;;;;;;1.85;0.50;;;6.50;99.90;;;;;;4395659;32;20062;-73
2021/04/16 06:28:33;;;;;;;0.28;0.28;;;6.50;99.90;;;;;;4397170;32;20129;-72
2021/04/16 06:30:59;;;;;;;0.55;0.55;;;6.50;99.90;;;;;;4397673;32;20499;-72
2021/04/16 06:33:27;;;;;;;0.28;0.28;;;6.60;99.90;;;;;;4395218;32;20444;-73
2021/04/16 06:35:57;;;;;;;0.52;0.50;;;6.60;99.90;;;;;;4394768;32;20279;-73
2021/04/16 06:38:30;;;;;;;0.30;0.30;;;6.60;99.90;;;;;;4400294;32;20189;-73
2021/04/16 06:40:56;;;;;;;0.28;0.28;;;6.70;99.90;;;;;;4383651;32;20066;-73
2021/04/16 06:43:28;;;;;;;0.20;0.20;;;6.60;99.90;;;;;;4396912;32;20493;-73
2021/04/16 06:45:57;;;;;;;0.30;0.30;;;6.80;99.90;;;;;;4397403;32;20492;-73
2021/04/16 06:48:23;;;;;;;0.30;0.30;;;6.90;99.90;;;;;;4397286;32;20369;-74
2021/04/16 06:50:49;;;;;;;0.50;0.50;;;6.90;99.90;;;;;;4391035;32;20058;-74
2021/04/16 06:53:32;;;;;;;0.30;0.30;;;6.90;99.90;;;;;;4394605;32;20074;-74
2021/04/16 06:56:01;;;;;;;2.28;0.65;;;6.80;99.90;;;;;;4398742;32;20082;-73
2021/04/16 06:58:30;;;;;;;0.30;0.30;;;6.80;99.90;;;;;;4399978;32;20077;-73
2021/04/16 07:01:26;;;;;;;0.30;0.30;;;7.00;99.90;;;;;;4404821;32;20082;-73
2021/04/16 07:04:13;;;;;;;0.30;0.30;;;7.30;99.90;;;;;;4372013;32;20083;-73
2021/04/16 07:06:38;;;;;;;2.25;0.55;;;7.40;99.90;;;;;;4393564;32;20061;-73
2021/04/16 07:09:12;;;;;;;1.95;0.35;;;7.60;99.90;;;;;;4405929;32;20078;-74
2021/04/16 07:11:44;;;;;;;0.65;0.65;;;7.70;99.90;;;;;;4393922;32;20531;-74
2021/04/16 07:14:36;;;;;;;0.20;0.20;;;7.90;99.90;;;;;;4393819;32;20629;-73
2021/04/16 07:17:03;;;;;;;0.30;0.30;;;8.00;99.90;;;;;;4384557;32;20197;-73
2021/04/16 07:19:29;;;;;;;0.40;0.40;;;7.90;99.90;;;;;;4392951;32;20462;-73
2021/04/16 07:22:01;;;;;;;0.28;0.28;;;8.00;99.90;;;;;;4391541;32;20066;-72
2021/04/16 07:24:27;;;;;;;0.75;0.65;;;7.90;99.90;;;;;;4395580;32;20521;-74
2021/04/16 07:26:58;;;;;;;0.30;0.30;;;7.90;99.90;;;;;;4393801;32;20062;-73
2021/04/16 07:29:45;;;;;;;0.30;0.30;;;8.00;99.90;;;;;;4390850;32;20390;-73
2021/04/16 07:32:34;;;;;;;0.30;0.30;;;7.90;99.90;;;;;;4394208;32;20086;-73
2021/04/16 07:35:22;;;;;;;0.25;0.25;;;7.90;99.90;;;;;;4382067;32;20070;-73
2021/04/16 07:37:58;;;;;;;0.45;0.45;;;7.90;99.90;;;;;;4381815;32;20098;-74
2021/04/16 07:40:27;;;;;;;8.57;1.17;;;7.90;99.90;;;;;;4392016;32;20487;-74
2021/04/16 07:42:53;;;;;;;0.32;0.32;;;8.00;99.90;;;;;;4395931;32;20066;-72
2021/04/16 07:45:36;;;;;;;0.57;0.57;;;8.00;99.90;;;;;;4396567;32;20124;-74
2021/04/16 07:48:33;;;;;;;0.30;0.30;;;8.10;99.90;;;;;;4394978;32;20085;-74
2021/04/16 07:51:02;;;;;;;0.30;0.30;;;8.20;99.90;;;;;;4382135;32;20054;-75
2021/04/16 07:53:46;;;;;;;0.35;0.35;;;8.30;99.90;;;;;;4392368;32;20062;-72
2021/04/16 07:56:23;;;;;;;0.30;0.30;;;8.20;99.90;;;;;;4392815;32;20062;-73
2021/04/16 07:59:00;;;;;;;0.20;0.20;;;8.10;99.90;;;;;;4392205;32;20069;-73
2021/04/16 08:01:29;;;;;;;0.20;0.20;;;8.30;99.90;;;;;;4392830;32;20078;-73
2021/04/16 08:03:58;;;;;;;0.20;0.20;;;8.40;99.90;;;;;;4391962;32;20078;-73
2021/04/16 08:06:29;;;;;;;0.35;0.35;;;8.50;99.90;;;;;;4394019;32;20547;-73
2021/04/16 08:08:54;;;;;;;0.40;0.40;;;8.60;99.90;;;;;;4393980;32;20176;-72
2021/04/16 08:11:26;;;;;;;0.30;0.30;;;8.80;99.90;;;;;;4393890;32;20073;-73
2021/04/16 08:13:55;;;;;;;0.25;0.25;;;8.80;99.90;;;;;;4392850;32;20081;-72
2021/04/16 08:16:35;;;;;;;1.65;0.55;;;8.80;99.90;;;;;;4392737;32;20136;-73
2021/04/16 08:19:05;;;;;;;0.30;0.30;;;8.60;99.90;;;;;;4391850;32;20121;-73
2021/04/16 08:21:35;;;;;;;0.40;0.40;;;8.60;99.90;;;;;;4392052;32;20670;-73
2021/04/16 08:24:08;;;;;;;0.47;0.47;;;8.50;99.90;;;;;;4390030;32;20090;-71
2021/04/16 08:26:40;;;;;;;0.45;0.45;;;8.60;99.90;;;;;;4393449;32;20090;-73
2021/04/16 08:29:21;;;;;;;4.45;0.75;;;8.50;99.90;;;;;;4392027;32;20078;-72
2021/04/16 08:31:57;;;;;;;0.40;0.40;;;8.70;99.90;;;;;;4396938;32;20479;-74
2021/04/16 08:34:30;;;;;;;3.33;1.00;;;8.80;99.90;;;;;;4394346;32;20113;-75
2021/04/16 08:36:58;;;;;;;0.40;0.40;;;9.00;99.90;;;;;;4396912;32;20508;-74
2021/04/16 08:39:29;;;;;;;0.40;0.40;;;9.00;99.90;;;;;;4393303;32;20874;-73
2021/04/16 08:42:02;;;;;;;0.47;0.47;;;9.20;99.90;;;;;;4389716;32;20543;-74
2021/04/16 08:44:31;;;;;;;0.40;0.40;;;9.20;99.90;;;;;;4395648;32;20062;-74
2021/04/16 08:46:58;;;;;;;0.32;0.32;;;9.20;99.90;;;;;;4396103;32;20121;-73
2021/04/16 08:49:30;;;;;;;1.42;1.02;;;9.30;99.90;;;;;;4393859;32;20496;-73
2021/04/16 08:52:05;;;;;;;2.65;1.62;;;9.20;99.90;;;;;;4384489;32;20089;-73
2021/04/16 08:54:35;;;;;;;0.20;0.20;;;9.40;99.90;;;;;;4390924;32;20061;-73
2021/04/16 08:57:07;;;;;;;0.20;0.20;;;9.60;99.90;;;;;;4388449;32;20093;-73
2021/04/16 08:59:54;;;;;;;0.30;0.30;;;9.60;99.90;;;;;;4392444;32;20121;-74
2021/04/16 09:02:23;;;;;;;0.55;0.55;;;9.90;99.90;;;;;;4370650;32;20066;-74
2021/04/16 09:04:55;;;;;;;0.30;0.30;;;10.10;99.90;;;;;;4387141;32;20523;-74
2021/04/16 09:07:33;;;;;;;0.50;0.50;;;10.20;99.90;;;;;;4393851;32;20074;-75
2021/04/16 09:10:00;;;;;;;0.30;0.30;;;10.20;99.90;;;;;;4385544;32;20113;-75
2021/04/16 09:12:47;;;;;;;0.35;0.35;;;10.30;99.90;;;;;;4392886;32;20070;-75
2021/04/16 09:15:26;;;;;;;0.28;0.28;;;10.30;99.90;;;;;;4381104;32;20074;-74
2021/04/16 09:17:54;;;;;;;0.20;0.20;;;10.30;99.90;;;;;;4390411;32;20821;-75
2021/04/16 09:20:44;;;;;;;0.20;0.20;;;10.40;99.90;;;;;;4390322;32;20432;-73
2021/04/16 09:23:31;;;;;;;0.30;0.30;;;10.50;99.90;;;;;;4379285;32;20089;-73
2021/04/16 09:25:57;;;;;;;0.30;0.30;;;10.60;99.90;;;;;;4382911;32;20091;-75
2021/04/16 09:28:25;;;;;;;0.30;0.30;;;10.40;99.90;;;;;;4391861;32;20070;-72
2021/04/16 09:30:54;;;;;;;0.20;0.20;;;10.60;99.90;;;;;;4380910;32;20073;-73
2021/04/16 09:33:25;;;;;;;0.20;0.20;;;11.00;99.90;;;;;;4386400;32;20552;-74
2021/04/16 09:36:02;;;;;;;0.45;0.45;;;11.30;99.90;;;;;;4379030;32;20559;-73
2021/04/16 09:38:38;;;;;;;0.80;0.55;;;11.20;99.90;;;;;;4393919;32;20061;-73
2021/04/16 09:41:27;;;;;;;1.98;1.48;;;11.40;99.90;;;;;;4390835;32;96215;-73
2021/04/16 09:43:56;;;;;;;0.30;0.30;;;11.60;99.90;;;;;;4378166;32;20564;-73
2021/04/16 09:46:34;;;;;;;0.47;0.47;;;11.50;99.90;;;;;;4388993;32;20058;-73
2021/04/16 09:49:05;;;;;;;3.12;0.45;;;11.20;99.90;;;;;;4395181;32;20082;-75
2021/04/16 09:51:45;;;;;;;0.30;0.30;;;11.20;99.90;;;;;;4387325;32;20062;-76
2021/04/16 09:54:12;;;;;;;0.30;0.30;;;11.10;99.90;;;;;;4390190;32;20073;-75
2021/04/16 09:57:03;;;;;;;0.30;0.30;;;11.20;99.90;;;;;;4392318;32;20441;-74
2021/04/16 09:59:32;;;;;;;0.50;0.50;;;11.20;99.90;;;;;;4381940;32;20073;-74
2021/04/16 10:02:19;;;;;;;0.30;0.30;;;11.10;99.90;;;;;;4394003;32;20492;-74
2021/04/16 10:04:55;;;;;;;0.30;0.30;;;11.00;99.90;;;;;;4393384;32;20078;-75
2021/04/16 10:07:25;;;;;;;0.45;0.45;;;11.20;99.90;;;;;;4389832;32;20058;-74
2021/04/16 10:09:50;;;;;;;0.50;0.47;;;11.40;99.90;;;;;;4397033;32;20081;-74
2021/04/16 10:12:26;;;;;;;0.20;0.20;;;11.30;99.90;;;;;;4394402;32;20058;-74
2021/04/16 10:14:52;;;;;;;0.85;0.68;;;11.40;99.90;;;;;;4395777;32;20528;-73
2021/04/16 10:17:21;;;;;;;0.30;0.30;;;11.40;99.90;;;;;;4393990;32;20069;-75
2021/04/16 10:20:05;;;;;;;0.40;0.40;;;11.40;99.90;;;;;;4392930;32;20102;-74
2021/04/16 10:22:34;;;;;;;0.32;0.32;;;11.20;99.90;;;;;;4389705;32;20095;-74
2021/04/16 10:28:14;;;;;;;0.25;0.25;;;11.10;99.90;;;;;;4392106;32;20392;-75
2021/04/16 10:32:03;;;;;;;0.52;0.52;;;11.20;99.90;;;;;;4368191;32;20138;-74
2021/04/16 10:39:03;;;;;;;8.05;0.62;;;11.10;99.90;;;;;;4394642;32;20110;-73
2021/04/16 10:40:32;;;;;;;0.30;0.30;;;11.00;99.90;;;;;;4360035;32;20128;-74
2021/04/16 10:44:26;;;;;;;0.20;0.20;;;11.20;99.90;;;;;;4379840;32;20062;-74
2021/04/16 10:49:18;;;;;;;;;;;12.00;99.90;;;;;;4393491;32;20107;-75
2021/04/16 10:51:20;;;;;;;0.22;0.22;;;12.10;99.90;;;;;;4384413;32;20043;-75
2021/04/16 10:55:25;;;;;;;0.65;0.40;;;12.00;99.90;;;;;;4376803;32;20118;-75
2021/04/16 10:59:59;;;;;;;0.88;0.43;;;12.00;99.90;;;;;;4383948;32;20077;-74
2021/04/16 11:00:52;;;;;;;0.20;0.20;;;12.20;99.90;;;;;;4380760;32;20162;-73
2021/04/16 11:11:05;;;;;;;0.40;0.40;;;12.10;99.10;;;;;;4385157;32;20426;-73
2021/04/16 11:23:37;;;;;;;0.30;0.30;;;12.80;97.50;;;;;;4380789;32;20066;-73
2021/04/16 11:29:04;;;;;;;1.40;0.98;;;12.80;97.00;;;;;;4400626;32;20102;-73
2021/04/16 11:32:02;;;;;;;0.22;0.22;;;13.50;96.20;;;;;;4378462;32;20070;-73
2021/04/16 11:45:34;;;;;;;1.08;0.40;;;13.70;95.50;;;;;;4385382;32;20073;-73
2021/04/16 12:40:24;;;;;;;0.22;0.22;;;19.00;63.20;;;;;;4392285;32;20062;-72
2021/04/16 12:42:50;;;;;;;0.52;0.37;;;19.20;63.10;;;;;;4392217;32;20065;-72
2021/04/16 12:45:17;;;;;;;0.40;0.40;;;19.20;61.00;;;;;;4393856;32;20070;-73
2021/04/16 12:47:43;;;;;;;0.57;0.57;;;19.00;60.80;;;;;;4388497;32;20089;-72
2021/04/16 12:50:12;;;;;;;1.10;0.73;;;18.90;60.10;;;;;;4395948;32;20062;-73
2021/04/16 12:52:37;;;;;;;0.20;0.20;;;18.80;59.50;;;;;;4390890;32;20459;-72
2021/04/16 12:55:03;;;;;;;4.97;1.05;;;19.10;58.10;;;;;;4396550;32;20134;-72
2021/04/16 12:57:49;;;;;;;0.32;0.32;;;18.90;59.20;;;;;;4394586;32;20434;-73
2021/04/16 13:00:24;;;;;;;0.20;0.20;;;18.90;58.30;;;;;;4381503;32;20070;-72
2021/04/16 13:03:15;;;;;;;0.20;0.20;;;19.30;60.80;;;;;;4395365;32;20077;-72
2021/04/16 13:05:42;;;;;;;0.20;0.20;;;19.90;57.80;;;;;;4373674;32;20074;-72
2021/04/16 13:08:08;;;;;;;0.55;0.55;;;19.60;57.70;;;;;;4400901;32;20103;-72
2021/04/16 13:10:34;;;;;;;1.20;0.73;;;18.90;60.90;;;;;;4395550;32;20519;-72
2021/04/16 13:13:00;;;;;;;0.20;0.20;;;18.80;59.50;;;;;;4398373;32;20082;-72
2021/04/16 13:15:25;;;;;;;3.20;0.47;;;18.20;58.30;;;;;;4394771;32;20541;-72
2021/04/16 13:17:55;;;;;;;1.08;0.65;;;17.40;61.20;;;;;;4391420;32;20503;-72
2021/04/16 13:20:24;;;;;;;4.37;0.82;;;17.10;60.70;;;;;;4401519;32;20062;-72
2021/04/16 13:22:51;;;;;;;0.32;0.32;;;16.90;62.80;;;;;;4391777;32;20487;-71
2021/04/16 13:25:20;;;;;;;1.65;1.15;;;17.00;62.40;;;;;;4394314;32;20073;-71
2021/04/16 13:27:47;;;;;;;0.52;0.52;;;16.60;64.00;;;;;;4391178;32;20090;-72
2021/04/16 13:30:14;;;;;;;0.20;0.20;;;16.70;63.60;;;;;;4395574;32;20078;-72
2021/04/16 13:32:43;;;;;;;0.40;0.40;;;16.80;65.00;;;;;;4396097;32;20097;-72
2021/04/16 13:35:13;;;;;;;0.30;0.30;;;17.10;65.40;;;;;;4393585;32;20473;-71
2021/04/16 13:37:39;;;;;;;0.40;0.40;;;17.60;65.10;;;;;;4397112;32;20066;-71
2021/04/16 13:40:06;;;;;;;1.35;0.85;;;17.10;64.70;;;;;;4391273;32;20078;-72
2021/04/16 13:42:31;;;;;;;1.45;0.62;;;17.00;66.70;;;;;;4390116;32;20070;-72
2021/04/16 13:44:57;;;;;;;0.62;0.62;;;17.60;64.50;;;;;;4371868;32;20225;-71
2021/04/16 13:47:25;;;;;;;0.20;0.20;;;18.10;64.30;;;;;;4392172;32;20144;-71
2021/04/16 13:49:55;;;;;;;17.12;0.82;;;18.40;60.20;;;;;;4397176;32;20114;-71
2021/04/16 13:52:20;;;;;;;0.30;0.30;;;18.40;59.70;;;;;;4398400;32;20086;-72
2021/04/16 13:54:48;;;;;;;0.32;0.32;;;19.00;59.30;;;;;;4398145;32;20070;-72
2021/04/16 13:57:15;;;;;;;0.30;0.30;;;19.20;57.40;;;;;;4396978;32;20542;-72
2021/04/16 13:59:42;;;;;;;0.20;0.20;;;19.60;57.00;;;;;;4395922;32;20086;-72
2021/04/16 14:02:08;;;;;;;0.30;0.30;;;19.40;57.30;;;;;;4396349;32;20082;-72
2021/04/16 14:04:36;;;;;;;0.20;0.20;;;19.00;57.60;;;;;;4395671;32;20091;-72
2021/04/16 14:07:06;;;;;;;0.40;0.40;;;18.50;57.60;;;;;;4395592;32;20502;-72
2021/04/16 14:09:32;;;;;;;0.22;0.22;;;18.00;58.40;;;;;;4391352;32;20085;-72
2021/04/16 14:11:58;;;;;;;0.30;0.30;;;18.00;59.20;;;;;;4393841;32;20510;-72
2021/04/16 14:14:28;;;;;;;0.30;0.30;;;18.00;60.40;;;;;;4390632;32;20070;-72
2021/04/16 14:17:04;;;;;;;0.20;0.20;;;17.60;64.20;;;;;;4397065;32;20085;-72
2021/04/16 14:19:52;;;;;;;0.20;0.20;;;18.50;60.20;;;;;;4394394;32;20074;-73
2021/04/16 14:22:28;;;;;;;0.62;0.57;;;18.90;57.60;;;;;;4384802;32;20082;-72
2021/04/16 14:24:55;;;;;;;0.68;0.68;;;19.00;59.20;;;;;;4396044;32;20090;-73
2021/04/16 14:27:21;;;;;;;1.17;0.50;;;19.80;56.70;;;;;;4390168;32;20079;-72
2021/04/16 14:30:07;;;;;;;0.20;0.20;;;20.70;55.60;;;;;;4394551;32;20073;-72
2021/04/16 14:32:33;;;;;;;0.20;0.20;;;19.70;56.60;;;;;;4395279;32;20090;-73
2021/04/16 14:34:58;;;;;;;0.30;0.30;;;19.60;55.80;;;;;;4394553;32;20070;-73
2021/04/16 14:37:24;;;;;;;0.65;0.65;;;20.00;56.20;;;;;;4397570;32;20082;-73
2021/04/16 14:39:49;;;;;;;0.20;0.20;;;20.00;56.90;;;;;;4398037;32;20586;-72
2021/04/16 14:42:15;;;;;;;0.20;0.20;;;20.00;54.70;;;;;;4399364;32;20086;-73